Pagrindinis puslapis
METAR-TAF:

METAR-TAF

Oro uostai :

Cranwell, Anglija

platuma: 53-02N, ilguma: 000-30W, Aukštis: 67 m

Dabartinis oras

Ataskaita buvo paskelbta 32 minutes, ne 18:50 UTC
Vėjas 8 kt iš Vakarų
Temperatūra 0°C
Drėgmė 100%
Slėgis 995 hPa
Matomumas 10 km arba daugiau

METAR: EGYD 231850Z AUTO 28008KT 9999 // BKN021/// 00/M00 Q0995

Laikas: 19:22 (19:22 UTC)


TAF: trūkstamas

Orai ataskaitas ir orų prognozės (METAR, TAF).

turimą stotys yra geltonos ir raudonos taškus žemėlapyje.

Perkelti pele per norėdami pamatyti stoties vardą.

Tada spustelėkite, norėdami matyti oro stebėjimo ir prognozės.

Norėdami pakeisti žemėlapį: spustelėkite ant žalios mygtukų su juodo kryžiaus žemyn,; žalią mygtuką su brūkšneliu, jei norite nutolinti; arba žalių rodyklių gretimoms žemėlapius.


METAR-TAF: